Time;durP1;ratioP1;P1;durP2;ratioP2;P2;SDS_P1;SDS_P2;PMS_P1;PMS_P2;Temp;Humidity;BMP_temperature;BMP_pressure;BME280_temperature;BME280_humidity;BME280_pressure;Samples;Min_cycle;Max_cycle;Signal;HPM_P1;HPM_P2
2021/05/24 00:00:31;;;;;;;8.47;4.10;;;8.90;99.90;;;;;;5052135;28;20731;-59
2021/05/24 00:02:57;;;;;;;9.70;4.38;;;8.90;99.90;;;;;;5050526;28;20397;-53
2021/05/24 00:05:29;;;;;;;8.65;3.70;;;8.80;99.90;;;;;;5052299;28;20385;-53
2021/05/24 00:07:55;;;;;;;8.48;4.10;;;8.80;99.90;;;;;;5050304;28;20381;-53
2021/05/24 00:10:27;;;;;;;9.30;4.00;;;8.80;99.90;;;;;;5052206;28;20481;-53
2021/05/24 00:12:55;;;;;;;9.63;4.15;;;8.70;99.90;;;;;;5051073;28;21146;-54
2021/05/24 00:15:29;;;;;;;9.75;4.20;;;8.70;99.90;;;;;;5052099;28;20385;-54
2021/05/24 00:17:55;;;;;;;8.27;4.60;;;8.70;99.90;;;;;;5051010;28;20580;-54
2021/05/24 00:20:27;;;;;;;7.53;4.15;;;8.70;99.90;;;;;;5051978;28;20482;-54
2021/05/24 00:22:53;;;;;;;6.72;4.00;;;8.60;99.90;;;;;;5051387;28;20413;-53
2021/05/24 00:25:19;;;;;;;9.85;4.00;;;8.50;99.90;;;;;;5052362;28;20389;-53
2021/05/24 00:27:46;;;;;;;8.57;3.90;;;8.40;99.90;;;;;;5051084;28;20386;-55
2021/05/24 00:30:12;;;;;;;8.47;3.80;;;8.30;99.90;;;;;;5052048;28;20859;-53
2021/05/24 00:32:38;;;;;;;7.75;3.58;;;8.30;99.90;;;;;;5051395;28;20385;-53
2021/05/24 00:35:05;;;;;;;7.67;4.00;;;8.30;99.90;;;;;;5051563;28;20527;-53
2021/05/24 00:37:30;;;;;;;6.47;3.90;;;8.40;99.90;;;;;;5051708;28;20468;-58
2021/05/24 00:39:56;;;;;;;7.82;4.00;;;8.40;99.90;;;;;;5050697;28;20878;-54
2021/05/24 00:42:22;;;;;;;9.20;4.00;;;8.50;99.90;;;;;;5051479;28;20739;-53
2021/05/24 00:44:48;;;;;;;7.10;3.90;;;8.40;99.90;;;;;;5066277;28;20382;-53
2021/05/24 00:47:13;;;;;;;7.70;4.10;;;8.30;99.90;;;;;;5051201;28;20431;-53
2021/05/24 00:49:39;;;;;;;8.45;4.18;;;8.30;99.90;;;;;;5044658;28;20504;-53
2021/05/24 00:52:05;;;;;;;7.13;4.73;;;8.30;99.90;;;;;;5051745;28;20377;-55
2021/05/24 00:54:31;;;;;;;7.97;4.43;;;8.30;99.90;;;;;;5051424;28;20859;-57
2021/05/24 00:57:00;;;;;;;8.10;4.35;;;8.40;99.90;;;;;;5050472;28;20461;-54
2021/05/24 00:59:25;;;;;;;7.53;4.43;;;8.50;99.90;;;;;;5066737;28;20412;-53
2021/05/24 01:01:51;;;;;;;8.10;4.30;;;8.50;99.90;;;;;;5050168;28;20559;-53
2021/05/24 01:04:19;;;;;;;8.23;4.10;;;8.50;99.90;;;;;;5050836;28;20468;-53
2021/05/24 01:06:46;;;;;;;7.30;3.90;;;8.50;99.90;;;;;;5050436;28;20398;-53
2021/05/24 01:09:13;;;;;;;8.00;4.10;;;8.40;99.90;;;;;;5051055;28;20381;-53
2021/05/24 01:11:39;;;;;;;8.57;3.80;;;8.40;99.90;;;;;;5049989;28;20378;-54
2021/05/24 01:14:04;;;;;;;7.75;3.88;;;8.40;99.90;;;;;;5051045;28;20381;-53
2021/05/24 01:16:30;;;;;;;7.60;4.30;;;8.40;99.90;;;;;;5029715;28;20397;-54
2021/05/24 01:18:57;;;;;;;7.40;4.20;;;8.40;99.90;;;;;;5029813;28;20474;-53
2021/05/24 01:21:24;;;;;;;7.82;4.35;;;8.40;99.90;;;;;;5030938;28;20389;-54
2021/05/24 01:23:51;;;;;;;7.10;3.60;;;8.40;99.90;;;;;;5029782;28;20383;-53
2021/05/24 01:26:20;;;;;;;7.13;3.88;;;8.50;99.90;;;;;;5030839;28;20437;-53
2021/05/24 01:28:45;;;;;;;8.45;3.90;;;8.50;99.90;;;;;;5029657;28;20386;-53
2021/05/24 01:31:12;;;;;;;8.48;4.28;;;8.60;99.90;;;;;;5030791;28;20730;-54
2021/05/24 01:33:38;;;;;;;7.70;3.90;;;8.60;99.90;;;;;;5029918;28;20383;-54
2021/05/24 01:36:06;;;;;;;6.80;3.65;;;8.60;99.90;;;;;;5030671;28;20393;-55
2021/05/24 01:38:32;;;;;;;8.20;4.20;;;8.50;99.90;;;;;;5030369;28;20418;-53
2021/05/24 01:40:58;;;;;;;10.60;4.20;;;8.60;99.90;;;;;;5029733;28;20473;-53
2021/05/24 01:43:28;;;;;;;8.10;4.30;;;8.60;99.90;;;;;;5030457;28;20471;-54
2021/05/24 01:45:54;;;;;;;8.07;4.60;;;8.60;99.90;;;;;;5029902;28;20375;-53
2021/05/24 01:48:20;;;;;;;8.60;4.40;;;8.60;99.90;;;;;;5030006;28;20395;-53
2021/05/24 01:50:46;;;;;;;8.20;4.00;;;8.60;99.90;;;;;;5029841;28;20779;-53
2021/05/24 01:53:12;;;;;;;8.27;4.63;;;8.50;99.90;;;;;;5030270;28;20946;-53
2021/05/24 01:55:38;;;;;;;7.20;4.00;;;8.50;99.90;;;;;;5029559;28;20891;-53
2021/05/24 01:58:05;;;;;;;7.00;4.30;;;8.40;99.90;;;;;;5030132;28;20383;-53
2021/05/24 02:00:31;;;;;;;7.50;4.25;;;8.20;99.90;;;;;;5030190;28;20390;-53
2021/05/24 02:02:57;;;;;;;7.95;4.40;;;8.30;99.90;;;;;;5029293;28;20384;-53
2021/05/24 02:05:25;;;;;;;7.53;4.43;;;8.10;99.90;;;;;;5029983;28;20635;-53
2021/05/24 02:07:52;;;;;;;7.40;4.35;;;8.00;99.90;;;;;;5029553;28;20951;-53
2021/05/24 02:10:22;;;;;;;8.32;4.95;;;7.80;99.90;;;;;;5030111;28;20379;-53
2021/05/24 02:12:49;;;;;;;8.88;4.72;;;7.60;99.90;;;;;;5029436;28;20371;-53
2021/05/24 02:15:21;;;;;;;10.98;4.90;;;7.50;99.90;;;;;;5029996;28;20486;-53
2021/05/24 02:17:47;;;;;;;7.53;4.53;;;7.50;99.90;;;;;;5027464;28;20497;-53
2021/05/24 02:20:18;;;;;;;7.72;4.35;;;7.50;99.90;;;;;;5029897;28;20964;-53
2021/05/24 02:22:43;;;;;;;9.80;4.80;;;7.50;99.90;;;;;;5029217;28;20863;-53
2021/05/24 02:25:10;;;;;;;8.45;4.32;;;7.50;99.90;;;;;;5030128;28;20387;-53
2021/05/24 02:27:35;;;;;;;7.60;4.55;;;7.50;99.90;;;;;;5028057;28;20402;-58
2021/05/24 02:30:01;;;;;;;8.98;4.90;;;7.50;99.90;;;;;;5029696;28;20383;-56
2021/05/24 02:32:27;;;;;;;9.60;3.83;;;7.60;99.90;;;;;;5050948;28;20380;-53
2021/05/24 02:34:52;;;;;;;7.30;4.25;;;7.60;99.90;;;;;;5069227;28;20388;-54
2021/05/24 02:37:19;;;;;;;7.30;3.80;;;7.80;99.90;;;;;;5051942;28;20869;-53
2021/05/24 02:39:45;;;;;;;9.27;3.85;;;7.80;99.90;;;;;;5068791;28;20407;-53
2021/05/24 02:42:11;;;;;;;7.10;3.67;;;7.80;99.90;;;;;;5069439;28;20888;-54
2021/05/24 02:44:36;;;;;;;7.00;4.13;;;7.90;99.90;;;;;;5069334;28;20368;-59
2021/05/24 02:47:02;;;;;;;6.93;4.22;;;7.90;99.90;;;;;;5068276;28;20384;-53
2021/05/24 02:49:28;;;;;;;7.27;4.20;;;8.00;99.90;;;;;;5069042;28;20407;-53
2021/05/24 02:51:53;;;;;;;6.60;4.00;;;8.10;99.90;;;;;;5068675;28;20448;-53
2021/05/24 02:54:19;;;;;;;9.20;4.13;;;8.10;99.90;;;;;;5069245;28;20423;-53
2021/05/24 02:56:45;;;;;;;7.63;3.90;;;8.10;99.90;;;;;;5068769;28;20714;-53
2021/05/24 02:59:12;;;;;;;7.63;4.77;;;8.00;99.90;;;;;;5069627;28;20510;-53
2021/05/24 03:01:39;;;;;;;9.07;4.30;;;8.00;99.90;;;;;;5071319;28;20959;-54
2021/05/24 03:04:07;;;;;;;7.55;4.07;;;8.00;99.90;;;;;;5072328;28;20481;-53
2021/05/24 03:06:34;;;;;;;7.15;4.25;;;8.10;99.90;;;;;;5073413;28;20541;-53
2021/05/24 03:08:59;;;;;;;9.13;4.10;;;8.10;99.90;;;;;;5072901;28;20376;-53
2021/05/24 03:11:25;;;;;;;10.57;4.00;;;8.10;99.90;;;;;;5072832;28;20399;-53
2021/05/24 03:13:51;;;;;;;8.18;4.13;;;8.10;99.90;;;;;;5072222;28;20384;-53
2021/05/24 03:16:18;;;;;;;8.37;4.17;;;8.10;99.90;;;;;;5073107;28;20375;-53
2021/05/24 03:18:43;;;;;;;7.93;4.22;;;8.10;99.90;;;;;;5071558;28;20777;-53
2021/05/24 03:21:09;;;;;;;7.73;3.90;;;8.20;99.90;;;;;;5072628;28;20383;-53
2021/05/24 03:23:35;;;;;;;9.10;4.47;;;8.30;99.90;;;;;;5072501;28;20380;-57
2021/05/24 03:26:00;;;;;;;8.25;3.88;;;8.40;99.90;;;;;;5072290;28;20380;-53
2021/05/24 03:28:26;;;;;;;7.90;4.10;;;8.50;99.90;;;;;;5072694;28;20384;-53
2021/05/24 03:30:52;;;;;;;6.07;3.70;;;8.50;99.90;;;;;;5071684;28;20379;-53
2021/05/24 03:33:18;;;;;;;6.93;3.90;;;8.50;99.90;;;;;;5072765;28;20467;-54
2021/05/24 03:35:43;;;;;;;7.00;3.80;;;8.40;99.90;;;;;;5071923;28;20467;-53
2021/05/24 03:38:09;;;;;;;6.70;4.00;;;8.40;99.90;;;;;;5072416;28;20408;-53
2021/05/24 03:40:35;;;;;;;6.90;3.78;;;8.50;99.90;;;;;;5072274;28;20934;-59
2021/05/24 03:43:01;;;;;;;7.47;4.77;;;8.40;99.90;;;;;;5054245;28;20384;-53
2021/05/24 03:45:27;;;;;;;7.57;4.30;;;8.50;99.90;;;;;;5072420;28;20437;-54
2021/05/24 03:47:53;;;;;;;10.83;4.70;;;8.60;99.90;;;;;;5071511;28;20388;-54
2021/05/24 03:50:20;;;;;;;7.85;4.40;;;8.60;99.90;;;;;;5054508;28;20376;-54
2021/05/24 03:52:47;;;;;;;7.15;4.20;;;8.50;99.90;;;;;;5053586;28;20901;-55
2021/05/24 03:55:17;;;;;;;7.40;4.30;;;8.50;99.90;;;;;;5072405;28;20372;-53
2021/05/24 03:57:42;;;;;;;7.50;4.43;;;8.40;99.90;;;;;;5071861;28;20445;-53
2021/05/24 04:00:09;;;;;;;8.05;4.38;;;8.40;99.90;;;;;;5072052;28;20408;-53
2021/05/24 04:02:35;;;;;;;7.30;4.00;;;8.30;99.90;;;;;;5072021;28;20423;-59
2021/05/24 04:05:09;;;;;;;7.73;4.60;;;8.40;99.90;;;;;;5071743;28;20404;-53
2021/05/24 04:07:34;;;;;;;9.18;4.68;;;8.40;99.90;;;;;;5072499;28;20376;-53
2021/05/24 04:10:00;;;;;;;6.90;4.20;;;8.50;99.90;;;;;;5071446;28;20387;-53
2021/05/24 04:12:26;;;;;;;7.43;4.22;;;8.40;99.90;;;;;;5071627;28;20388;-56
2021/05/24 04:14:52;;;;;;;8.10;4.40;;;8.50;99.90;;;;;;5071147;28;20400;-54
2021/05/24 04:17:21;;;;;;;8.40;4.27;;;8.40;99.90;;;;;;5054181;28;20403;-53
2021/05/24 04:19:47;;;;;;;7.75;4.65;;;8.50;99.90;;;;;;5070878;28;20400;-54
2021/05/24 04:22:12;;;;;;;9.00;4.70;;;8.60;99.90;;;;;;5071776;28;20399;-53
2021/05/24 04:24:38;;;;;;;7.30;4.57;;;8.60;99.90;;;;;;5071258;28;20379;-59
2021/05/24 04:27:04;;;;;;;7.20;4.18;;;8.60;99.90;;;;;;5071662;28;20411;-55
2021/05/24 04:29:30;;;;;;;8.68;4.50;;;8.60;99.90;;;;;;5071759;28;20449;-54
2021/05/24 04:31:55;;;;;;;8.47;4.33;;;8.60;99.90;;;;;;5070552;28;20895;-53
2021/05/24 04:34:21;;;;;;;6.80;4.30;;;8.60;99.90;;;;;;5071658;28;20931;-53
2021/05/24 04:36:47;;;;;;;9.63;4.70;;;8.70;99.90;;;;;;5052848;28;20388;-54
2021/05/24 04:39:12;;;;;;;7.90;4.10;;;8.70;99.90;;;;;;5071102;28;20407;-53
2021/05/24 04:41:38;;;;;;;8.50;4.30;;;8.80;99.90;;;;;;5070829;28;20425;-58
2021/05/24 04:44:19;;;;;;;8.00;4.30;;;8.80;99.90;;;;;;5070984;28;20459;-53
2021/05/24 04:46:46;;;;;;;7.30;4.70;;;8.80;99.90;;;;;;5070392;28;20434;-54
2021/05/24 04:49:12;;;;;;;9.47;4.20;;;8.90;99.90;;;;;;5071364;28;20423;-53
2021/05/24 04:51:38;;;;;;;7.35;4.10;;;8.80;99.90;;;;;;5070489;28;20464;-59
2021/05/24 04:54:05;;;;;;;7.53;4.40;;;8.80;99.90;;;;;;5070888;28;20929;-53
2021/05/24 04:56:31;;;;;;;8.27;4.43;;;8.90;99.90;;;;;;5071035;28;20387;-53
2021/05/24 04:58:57;;;;;;;6.97;3.90;;;9.10;99.90;;;;;;5070258;28;20888;-53
2021/05/24 05:01:22;;;;;;;8.33;4.20;;;9.10;99.90;;;;;;5070650;28;20408;-53
2021/05/24 05:03:48;;;;;;;8.52;4.30;;;9.30;99.90;;;;;;5069953;28;20850;-53
2021/05/24 05:06:14;;;;;;;7.63;4.23;;;9.40;99.90;;;;;;5070897;28;20376;-52
2021/05/24 05:08:39;;;;;;;6.90;4.57;;;9.40;99.90;;;;;;5069915;28;20376;-58
2021/05/24 05:11:05;;;;;;;9.48;4.60;;;9.60;99.90;;;;;;5061818;28;20535;-52
2021/05/24 05:13:31;;;;;;;8.53;4.30;;;9.60;99.90;;;;;;5050699;28;20382;-52
2021/05/24 05:15:56;;;;;;;8.00;4.20;;;9.50;99.90;;;;;;5049533;28;20381;-52
2021/05/24 05:18:22;;;;;;;7.40;3.80;;;9.60;99.90;;;;;;5050153;28;20975;-52
2021/05/24 05:20:47;;;;;;;7.13;3.90;;;9.60;99.90;;;;;;5049940;28;20456;-53
2021/05/24 05:23:13;;;;;;;8.27;4.37;;;9.90;99.90;;;;;;5049367;28;20382;-53
2021/05/24 05:25:39;;;;;;;6.90;4.30;;;10.00;99.90;;;;;;5050282;28;20442;-58
2021/05/24 05:28:05;;;;;;;8.27;4.10;;;10.10;99.90;;;;;;5050232;28;20386;-53
2021/05/24 05:30:31;;;;;;;7.03;3.83;;;10.30;99.90;;;;;;5050102;28;20397;-53
2021/05/24 05:32:57;;;;;;;8.65;4.35;;;10.30;99.90;;;;;;5049513;28;20385;-53
2021/05/24 05:35:22;;;;;;;6.33;4.10;;;10.40;99.90;;;;;;5050422;28;20382;-53
2021/05/24 05:37:50;;;;;;;7.15;4.20;;;10.40;99.90;;;;;;5048594;28;20398;-54
2021/05/24 05:40:18;;;;;;;8.88;4.15;;;10.60;99.90;;;;;;5049954;28;20405;-53
2021/05/24 05:42:46;;;;;;;9.00;4.27;;;10.70;99.90;;;;;;5049453;28;20831;-54
2021/05/24 05:45:13;;;;;;;8.30;3.80;;;10.70;99.90;;;;;;5050086;28;20382;-53
2021/05/24 05:47:38;;;;;;;9.02;4.30;;;10.80;99.90;;;;;;5049675;28;20401;-59
2021/05/24 05:50:05;;;;;;;7.47;3.67;;;10.80;99.90;;;;;;5049443;28;20388;-54
2021/05/24 05:52:31;;;;;;;7.85;4.10;;;10.90;99.90;;;;;;5039603;28;20402;-54
2021/05/24 05:54:57;;;;;;;6.60;3.67;;;11.00;99.90;;;;;;5045042;28;20389;-54
2021/05/24 05:57:23;;;;;;;6.73;3.87;;;11.10;99.90;;;;;;5049618;28;20765;-55
2021/05/24 05:59:48;;;;;;;6.35;3.50;;;11.30;99.90;;;;;;5048572;28;20427;-54
2021/05/24 06:02:14;;;;;;;8.30;3.80;;;11.50;99.90;;;;;;5049617;28;20431;-54
2021/05/24 06:04:39;;;;;;;7.05;3.50;;;11.70;99.90;;;;;;5048822;28;20800;-59
2021/05/24 06:07:05;;;;;;;8.43;4.13;;;11.60;99.90;;;;;;5047722;28;20396;-53
2021/05/24 06:09:31;;;;;;;6.10;3.57;;;11.60;99.90;;;;;;5049299;28;20393;-54
2021/05/24 06:11:56;;;;;;;8.90;4.10;;;11.70;99.90;;;;;;5048721;28;20388;-54
2021/05/24 06:14:22;;;;;;;7.90;4.00;;;11.70;99.90;;;;;;5049494;28;20412;-53
2021/05/24 06:16:48;;;;;;;6.90;3.78;;;11.80;99.90;;;;;;5059184;28;20380;-54
2021/05/24 06:19:15;;;;;;;7.18;3.70;;;11.70;99.90;;;;;;5069358;28;20437;-54
2021/05/24 06:21:41;;;;;;;9.23;4.03;;;11.80;99.90;;;;;;5069206;28;20384;-59
2021/05/24 06:24:08;;;;;;;7.90;3.97;;;12.10;99.90;;;;;;5069320;28;20445;-54
2021/05/24 06:26:34;;;;;;;7.13;3.80;;;12.50;99.90;;;;;;5065654;28;20460;-54
2021/05/24 06:28:59;;;;;;;7.00;4.10;;;13.00;99.90;;;;;;5052319;28;21002;-54
2021/05/24 06:31:25;;;;;;;7.13;3.93;;;13.50;99.90;;;;;;5056765;28;20917;-57
2021/05/24 06:33:51;;;;;;;6.35;4.10;;;13.70;99.90;;;;;;5048582;28;20388;-55
2021/05/24 06:36:17;;;;;;;7.17;4.20;;;13.90;99.90;;;;;;5053046;28;20992;-54
2021/05/24 06:38:42;;;;;;;7.20;4.30;;;14.00;99.90;;;;;;5052558;28;20405;-59
2021/05/24 06:41:08;;;;;;;8.03;4.00;;;14.00;99.90;;;;;;5053379;28;20408;-54
2021/05/24 06:43:35;;;;;;;7.30;4.20;;;16.00;99.90;;;;;;5053367;28;20890;-54
2021/05/24 06:46:00;;;;;;;6.90;3.95;;;14.10;99.90;;;;;;5052177;28;20376;-55
2021/05/24 06:48:26;;;;;;;6.97;4.23;;;14.20;99.90;;;;;;5052644;28;20405;-54
2021/05/24 06:50:52;;;;;;;7.60;3.90;;;14.20;99.90;;;;;;5034572;28;20381;-54
2021/05/24 06:53:18;;;;;;;6.90;3.90;;;14.40;99.90;;;;;;5053281;28;20385;-54
2021/05/24 06:55:44;;;;;;;8.23;4.10;;;14.30;99.90;;;;;;5052520;28;20442;-55
2021/05/24 06:58:09;;;;;;;6.47;3.80;;;14.40;99.90;;;;;;5052979;28;20377;-54
2021/05/24 07:00:35;;;;;;;8.60;4.10;;;14.50;99.90;;;;;;5068476;28;20397;-54
2021/05/24 07:03:01;;;;;;;7.70;4.20;;;14.80;99.90;;;;;;5045041;28;20389;-55
2021/05/24 07:05:27;;;;;;;6.90;3.90;;;15.00;99.90;;;;;;5053766;28;20373;-54
2021/05/24 07:07:52;;;;;;;8.10;4.70;;;15.00;99.90;;;;;;5054847;28;20390;-55
2021/05/24 07:10:18;;;;;;;8.57;4.20;;;15.00;99.90;;;;;;5062308;28;20416;-55
2021/05/24 07:12:44;;;;;;;6.25;3.75;;;15.30;99.90;;;;;;5053864;28;20471;-55
2021/05/24 07:15:10;;;;;;;7.50;3.77;;;15.50;99.90;;;;;;5052081;28;20393;-53
2021/05/24 07:17:35;;;;;;;6.40;3.80;;;16.10;99.90;;;;;;5051863;28;20416;-54
2021/05/24 07:20:03;;;;;;;7.07;3.60;;;16.70;99.90;;;;;;5065962;28;20871;-54
2021/05/24 07:22:29;;;;;;;6.22;3.63;;;17.10;99.90;;;;;;5052604;28;20433;-57
2021/05/24 07:24:56;;;;;;;5.80;3.10;;;17.10;99.90;;;;;;5051020;28;20385;-54
2021/05/24 07:27:22;;;;;;;6.10;3.30;;;18.10;99.90;;;;;;5052550;28;20504;-58
2021/05/24 07:29:48;;;;;;;6.40;3.17;;;18.90;99.90;;;;;;5051057;28;20393;-55
2021/05/24 07:32:13;;;;;;;7.57;3.30;;;20.20;99.90;;;;;;5047342;28;20448;-54
2021/05/24 07:34:40;;;;;;;6.50;3.20;;;20.30;98.50;;;;;;5050692;28;20420;-57
2021/05/24 07:37:07;;;;;;;6.10;3.30;;;19.90;99.90;;;;;;5051516;28;20413;-54
2021/05/24 07:39:33;;;;;;;5.50;3.00;;;19.90;99.90;;;;;;5051740;28;20436;-55
2021/05/24 07:42:01;;;;;;;6.80;3.00;;;19.80;99.90;;;;;;5050947;28;20465;-55
2021/05/24 07:44:28;;;;;;;6.38;2.80;;;19.60;99.90;;;;;;5052278;28;20925;-55
2021/05/24 07:46:55;;;;;;;5.85;2.70;;;19.30;99.90;;;;;;5050593;28;20404;-55
2021/05/24 07:49:21;;;;;;;5.50;2.80;;;18.90;99.90;;;;;;5051422;28;20389;-55
2021/05/24 07:51:48;;;;;;;6.00;2.15;;;18.50;99.90;;;;;;5051054;28;20875;-57
2021/05/24 07:54:13;;;;;;;6.22;2.50;;;18.10;99.90;;;;;;5057556;28;20606;-55
2021/05/24 07:56:39;;;;;;;5.80;2.40;;;18.00;99.90;;;;;;5063365;28;20375;-56
2021/05/24 07:59:05;;;;;;;8.00;2.50;;;17.80;99.90;;;;;;5042539;28;20552;-55
2021/05/24 08:01:31;;;;;;;6.10;2.60;;;18.00;99.90;;;;;;5057087;28;20440;-55
2021/05/24 08:03:56;;;;;;;6.55;2.80;;;17.90;99.90;;;;;;5058573;28;20456;-54
2021/05/24 08:06:22;;;;;;;6.53;2.63;;;17.70;99.90;;;;;;5061522;28;20448;-54
2021/05/24 08:08:48;;;;;;;5.80;3.10;;;17.90;99.90;;;;;;5056269;28;20389;-55
2021/05/24 08:11:15;;;;;;;6.22;2.47;;;18.00;99.90;;;;;;5051295;28;20382;-55
2021/05/24 08:13:41;;;;;;;6.60;2.63;;;17.90;99.90;;;;;;5051736;28;20385;-58
2021/05/24 08:16:08;;;;;;;6.88;2.10;;;17.90;99.90;;;;;;5051043;28;20386;-53
2021/05/24 08:18:34;;;;;;;4.70;1.80;;;18.10;99.90;;;;;;5050811;28;20890;-59
2021/05/24 08:20:59;;;;;;;6.78;2.45;;;18.50;99.90;;;;;;5059477;28;20385;-62
2021/05/24 08:23:26;;;;;;;7.50;2.10;;;18.50;99.90;;;;;;5064479;28;20384;-58
2021/05/24 08:25:52;;;;;;;8.48;2.45;;;18.80;99.90;;;;;;5070464;28;20398;-59
2021/05/24 08:28:17;;;;;;;5.40;2.30;;;19.20;99.90;;;;;;5071473;28;20376;-60
2021/05/24 08:30:45;;;;;;;6.80;2.70;;;19.40;99.90;;;;;;5070832;28;20745;-72
2021/05/24 08:33:10;;;;;;;4.90;2.20;;;19.90;99.90;;;;;;5071045;28;20853;-58
2021/05/24 08:35:36;;;;;;;5.72;2.15;;;20.10;99.50;;;;;;5071545;28;20382;-58
2021/05/24 08:38:02;;;;;;;6.20;2.35;;;20.80;96.10;;;;;;5070206;28;21034;-59
2021/05/24 08:40:28;;;;;;;7.47;2.30;;;21.10;94.40;;;;;;5070596;28;20462;-60
2021/05/24 08:42:58;;;;;;;6.07;2.20;;;21.10;93.70;;;;;;5070393;28;20384;-57
2021/05/24 08:45:28;;;;;;;5.17;2.10;;;20.10;94.70;;;;;;5070618;28;20411;-61
2021/05/24 08:47:53;;;;;;;4.80;2.10;;;20.20;95.50;;;;;;5069562;28;20396;-64
2021/05/24 08:50:19;;;;;;;5.63;2.20;;;20.20;94.50;;;;;;5070738;28;20394;-59
2021/05/24 08:52:45;;;;;;;7.03;2.00;;;20.70;93.40;;;;;;5069600;28;20372;-72
2021/05/24 08:55:12;;;;;;;4.70;1.93;;;21.20;93.10;;;;;;5070467;28;20372;-58
2021/05/24 08:57:39;;;;;;;6.75;2.00;;;21.40;91.50;;;;;;5069775;28;20842;-58
2021/05/24 09:00:08;;;;;;;6.22;2.17;;;22.70;87.20;;;;;;5069068;28;20415;-58
2021/05/24 09:02:38;;;;;;;26.80;8.45;;;23.80;84.70;;;;;;5051352;28;20386;-59
2021/05/24 09:05:06;;;;;;;7.32;2.30;;;24.90;78.90;;;;;;5049848;28;20507;-60
2021/05/24 09:08:06;;;;;;;9.15;3.67;;;25.30;72.70;;;;;;5050285;28;20394;-59
2021/05/24 09:10:35;;;;;;;5.60;2.20;;;25.40;71.60;;;;;;5041733;28;20733;-62
2021/05/24 09:13:08;;;;;;;6.00;2.50;;;26.10;67.90;;;;;;5048176;28;20521;-59
2021/05/24 09:15:34;;;;;;;7.40;2.00;;;26.30;65.20;;;;;;5050507;28;20400;-58
2021/05/24 09:18:02;;;;;;;6.45;1.90;;;25.80;64.30;;;;;;5050067;28;20431;-59
2021/05/24 09:20:29;;;;;;;5.03;2.03;;;25.30;65.30;;;;;;5056532;28;20429;-58
2021/05/24 09:23:05;;;;;;;7.05;2.40;;;25.50;64.60;;;;;;5048884;28;20470;-61
2021/05/24 09:25:59;;;;;;;7.13;2.83;;;25.10;66.60;;;;;;5050125;28;20408;-59
2021/05/24 09:28:34;;;;;;;9.57;3.47;;;24.70;68.40;;;;;;5052496;28;20399;-59
2021/05/24 09:31:30;;;;;;;5.35;2.10;;;24.60;69.70;;;;;;5049816;28;20385;-59
2021/05/24 09:33:59;;;;;;;6.90;2.17;;;24.20;70.40;;;;;;5046886;28;20470;-60
2021/05/24 09:36:25;;;;;;;6.00;2.00;;;23.70;68.70;;;;;;5052669;28;20393;-59
2021/05/24 09:39:12;;;;;;;5.70;2.00;;;23.30;71.30;;;;;;5055363;28;20473;-59
2021/05/24 09:41:44;;;;;;;5.60;2.10;;;22.60;72.40;;;;;;5052643;28;20393;-59
2021/05/24 09:44:23;;;;;;;6.68;2.42;;;22.60;77.00;;;;;;5060337;28;20384;-58
2021/05/24 09:46:50;;;;;;;5.80;2.10;;;22.60;77.30;;;;;;5059442;28;20918;-58
2021/05/24 09:49:16;;;;;;;5.05;2.30;;;22.40;77.00;;;;;;5051568;28;20409;-57
2021/05/24 09:51:45;;;;;;;5.95;2.50;;;22.40;79.40;;;;;;5048877;28;20384;-73
2021/05/24 09:54:13;;;;;;;6.82;2.15;;;21.90;79.00;;;;;;5049138;28;20380;-62
2021/05/24 09:56:46;;;;;;;7.78;2.60;;;22.40;80.60;;;;;;5051679;28;21082;-59
2021/05/24 09:59:25;;;;;;;5.20;2.28;;;22.60;79.00;;;;;;5048682;28;20492;-59
2021/05/24 10:01:59;;;;;;;6.20;2.42;;;22.60;79.30;;;;;;5046814;28;20401;-62
2021/05/24 10:04:31;;;;;;;6.07;2.53;;;22.30;81.10;;;;;;5047965;28;20381;-59
2021/05/24 10:06:58;;;;;;;6.90;1.80;;;22.40;83.20;;;;;;5051210;28;20385;-59
2021/05/24 10:09:24;;;;;;;4.80;1.60;;;22.30;81.50;;;;;;5049229;28;20780;-60
2021/05/24 10:11:52;;;;;;;5.70;1.60;;;22.10;83.00;;;;;;5047280;28;20428;-59
2021/05/24 10:14:22;;;;;;;5.15;1.58;;;21.80;83.90;;;;;;5047760;28;20819;-59
2021/05/24 10:16:50;;;;;;;6.57;1.75;;;21.60;83.50;;;;;;5048701;28;20480;-69
2021/05/24 10:19:17;;;;;;;4.60;1.70;;;21.50;82.70;;;;;;5063154;28;20825;-59
2021/05/24 10:21:47;;;;;;;4.88;1.50;;;21.50;83.20;;;;;;5053628;28;20502;-73
2021/05/24 10:24:13;;;;;;;6.00;1.80;;;21.70;86.10;;;;;;5059837;28;20377;-59
2021/05/24 10:26:41;;;;;;;5.80;2.00;;;21.70;85.10;;;;;;5029490;28;20465;-62
2021/05/24 10:29:08;;;;;;;5.70;2.10;;;21.90;86.30;;;;;;5049577;28;20420;-60
2021/05/24 10:31:35;;;;;;;8.60;2.22;;;22.20;84.10;;;;;;5060648;28;20396;-59
2021/05/24 10:34:17;;;;;;;6.03;1.98;;;22.20;84.50;;;;;;5059897;28;20433;-59
2021/05/24 10:36:45;;;;;;;4.90;2.03;;;22.00;83.60;;;;;;5047942;28;20435;-59
2021/05/24 10:39:19;;;;;;;5.63;2.30;;;22.60;83.10;;;;;;5065042;28;20452;-59
2021/05/24 10:41:50;;;;;;;4.50;1.70;;;22.40;84.10;;;;;;5054012;28;20388;-59
2021/05/24 10:44:21;;;;;;;5.03;1.88;;;22.10;84.40;;;;;;5053066;28;20397;-61
2021/05/24 10:46:48;;;;;;;6.20;2.35;;;21.40;82.50;;;;;;5049911;28;20398;-72
2021/05/24 10:49:13;;;;;;;5.50;2.30;;;21.40;86.30;;;;;;5050160;28;20409;-59
2021/05/24 10:51:48;;;;;;;7.20;2.30;;;21.40;84.40;;;;;;5049275;28;20743;-59
2021/05/24 10:54:20;;;;;;;5.07;2.28;;;21.20;86.00;;;;;;5058214;28;20395;-60
2021/05/24 10:56:58;;;;;;;9.23;2.43;;;21.20;86.50;;;;;;5054725;28;20468;-58
2021/05/24 10:59:42;;;;;;;5.85;2.03;;;21.00;86.00;;;;;;5065206;28;20414;-59
2021/05/24 11:02:35;;;;;;;5.80;2.00;;;21.10;89.20;;;;;;5056528;28;20387;-59
2021/05/24 11:05:21;;;;;;;4.80;1.60;;;20.80;87.70;;;;;;5041509;28;20447;-62
2021/05/24 11:07:49;;;;;;;6.00;1.95;;;20.80;89.90;;;;;;5051859;28;20784;-60
2021/05/24 11:10:17;;;;;;;5.65;2.10;;;20.80;88.80;;;;;;5058342;28;20392;-59
2021/05/24 11:12:43;;;;;;;4.90;1.80;;;20.70;90.00;;;;;;5062000;28;20434;-58
2021/05/24 11:15:18;;;;;;;4.40;1.80;;;20.90;90.10;;;;;;5050290;28;20500;-60
2021/05/24 11:18:03;;;;;;;5.38;1.80;;;21.30;89.50;;;;;;5058533;28;20478;-59
2021/05/24 11:20:41;;;;;;;4.85;1.73;;;21.30;88.90;;;;;;5034672;28;20419;-63
2021/05/24 11:23:38;;;;;;;5.50;2.00;;;21.20;89.40;;;;;;5031190;28;20405;-66
2021/05/24 11:26:43;;;;;;;4.33;1.50;;;21.40;90.00;;;;;;5043337;28;20855;-59
2021/05/24 11:29:08;;;;;;;6.20;1.88;;;21.30;89.40;;;;;;5031048;28;20410;-60
2021/05/24 11:31:33;;;;;;;6.10;1.90;;;21.40;90.30;;;;;;5034163;28;20420;-59
2021/05/24 11:33:59;;;;;;;4.90;1.87;;;21.80;88.40;;;;;;5033217;28;20400;-59
2021/05/24 11:36:40;;;;;;;4.60;1.70;;;22.40;86.50;;;;;;5033394;28;20395;-59
2021/05/24 11:39:15;;;;;;;5.35;1.75;;;22.50;81.70;;;;;;5047835;28;20487;-67
2021/05/24 11:41:51;;;;;;;5.18;1.70;;;22.60;84.40;;;;;;5035965;28;20405;-58
2021/05/24 11:44:18;;;;;;;4.90;1.90;;;22.20;84.10;;;;;;5042662;28;20444;-61
2021/05/24 11:46:50;;;;;;;6.45;1.90;;;21.70;85.40;;;;;;5031742;28;20396;-58
2021/05/24 11:49:19;;;;;;;4.65;1.40;;;21.90;90.20;;;;;;5047180;28;20913;-61
2021/05/24 11:51:45;;;;;;;4.38;1.40;;;21.90;76.40;;;;;;5036856;28;20417;-63
2021/05/24 11:54:19;;;;;;;3.90;1.00;;;22.10;73.70;;;;;;5042136;28;20379;-69
2021/05/24 11:56:47;;;;;;;4.30;1.10;;;22.40;59.80;;;;;;5038141;28;20387;-59
2021/05/24 11:59:15;;;;;;;6.40;1.80;;;22.60;71.40;;;;;;5047332;28;20447;-59
2021/05/24 12:01:43;;;;;;;4.53;1.10;;;22.80;77.30;;;;;;5032368;28;20438;-67
2021/05/24 12:04:12;;;;;;;4.20;1.10;;;23.20;65.10;;;;;;5034299;28;20391;-58
2021/05/24 12:06:43;;;;;;;4.10;1.10;;;23.40;55.00;;;;;;5026795;28;20403;-59
2021/05/24 12:09:09;;;;;;;3.77;0.77;;;23.20;53.00;;;;;;5035117;28;20408;-59
2021/05/24 12:11:36;;;;;;;3.80;0.82;;;23.30;51.20;;;;;;5039967;28;20470;-68
2021/05/24 12:14:11;;;;;;;3.50;0.70;;;23.30;46.10;;;;;;5067979;28;20393;-63
2021/05/24 12:16:37;;;;;;;3.50;0.70;;;23.20;46.60;;;;;;5039404;28;20936;-64
2021/05/24 12:19:03;;;;;;;4.07;1.00;;;23.20;50.40;;;;;;5055083;28;20558;-63
2021/05/24 12:21:39;;;;;;;3.90;0.85;;;23.50;48.20;;;;;;5065499;28;20420;-58
2021/05/24 12:24:07;;;;;;;3.67;0.73;;;23.40;48.50;;;;;;5060654;28;20938;-62
2021/05/24 12:26:37;;;;;;;3.42;0.70;;;23.70;51.00;;;;;;5050184;28;20374;-59
2021/05/24 12:29:06;;;;;;;3.90;0.60;;;23.50;45.60;;;;;;5048687;28;20408;-62
2021/05/24 12:31:32;;;;;;;3.50;0.65;;;23.60;47.90;;;;;;5050801;28;20519;-60
2021/05/24 12:34:01;;;;;;;3.70;0.80;;;23.60;49.10;;;;;;5047292;28;20488;-58
2021/05/24 12:36:42;;;;;;;4.40;0.90;;;23.40;46.60;;;;;;5050562;28;20465;-58
2021/05/24 12:39:08;;;;;;;3.60;0.60;;;23.40;49.40;;;;;;5047633;28;20425;-67
2021/05/24 12:41:34;;;;;;;4.35;0.70;;;23.40;46.80;;;;;;5046562;28;20401;-60
2021/05/24 12:44:02;;;;;;;4.10;0.73;;;23.00;47.00;;;;;;5051751;28;20916;-60
2021/05/24 12:46:30;;;;;;;3.75;0.73;;;22.90;49.40;;;;;;5049655;28;20534;-65
2021/05/24 12:48:58;;;;;;;3.30;0.60;;;22.70;48.40;;;;;;5063808;28;20537;-71
2021/05/24 12:51:26;;;;;;;4.65;0.70;;;22.70;51.70;;;;;;5070747;28;20888;-58
2021/05/24 12:53:58;;;;;;;4.47;0.90;;;22.60;48.80;;;;;;5053041;28;20913;-57